Time;durP1;ratioP1;P1;durP2;ratioP2;P2;SDS_P1;SDS_P2;PMS_P1;PMS_P2;Temp;Humidity;BMP_temperature;BMP_pressure;BME280_temperature;BME280_humidity;BME280_pressure;Samples;Min_cycle;Max_cycle;Signal;HPM_P1;HPM_P2
2021/08/16 00:00:59;;;;;;;3.63;3.40;;;;;;;26.79;46.44;97841.38;5019671;28;20249;-93
2021/08/16 00:03:26;;;;;;;3.80;3.50;;;;;;;26.80;46.49;97840.34;5017384;28;20208;-93
2021/08/16 00:05:52;;;;;;;3.70;3.40;;;;;;;26.81;46.32;97833.94;5000982;28;20218;-93
2021/08/16 00:08:19;;;;;;;3.27;3.07;;;;;;;26.86;46.02;97830.56;5017175;28;20197;-92
2021/08/16 00:10:45;;;;;;;3.60;3.30;;;;;;;26.84;46.09;97829.97;5015627;28;20209;-93
2021/08/16 00:13:12;;;;;;;3.53;3.23;;;;;;;26.78;46.34;97837.06;5018179;28;20200;-93
2021/08/16 00:15:39;;;;;;;3.50;3.20;;;;;;;26.80;46.14;97832.31;5019810;28;20198;-93
2021/08/16 00:18:06;;;;;;;3.60;3.30;;;;;;;26.77;46.37;97828.22;5019828;28;20183;-93
2021/08/16 00:20:33;;;;;;;3.57;3.27;;;;;;;26.74;46.29;97825.19;5019636;28;20230;-93
2021/08/16 00:23:00;;;;;;;3.63;3.40;;;;;;;26.71;46.20;97834.50;5002523;28;20587;-93
2021/08/16 00:25:27;;;;;;;4.00;3.70;;;;;;;26.70;46.37;97818.66;5016053;28;20222;-93
2021/08/16 00:27:53;;;;;;;3.60;3.30;;;;;;;26.69;46.50;97817.03;4999829;28;20194;-93
2021/08/16 00:30:21;;;;;;;4.00;3.70;;;;;;;26.68;46.41;97821.56;5001766;28;20203;-93
2021/08/16 00:32:49;;;;;;;4.07;3.77;;;;;;;26.69;46.30;97811.69;5018232;28;20215;-93
2021/08/16 00:35:16;;;;;;;4.00;3.70;;;;;;;26.72;46.12;97813.88;5018585;28;20262;-93
2021/08/16 00:37:45;;;;;;;3.50;3.20;;;;;;;26.69;46.58;97812.47;5017570;28;20204;-93
2021/08/16 00:40:14;;;;;;;3.50;3.20;;;;;;;26.64;46.42;97818.53;4997820;28;20214;-93
2021/08/16 00:42:41;;;;;;;3.83;3.53;;;;;;;26.63;46.54;97821.44;5009554;28;20206;-93
2021/08/16 00:45:08;;;;;;;3.53;3.23;;;;;;;26.63;46.32;97818.75;5010034;28;20229;-93
2021/08/16 00:47:37;;;;;;;3.53;3.30;;;;;;;26.64;46.50;97831.09;4993100;28;20195;-93
2021/08/16 00:50:06;;;;;;;3.90;3.60;;;;;;;26.66;46.61;97837.03;4993035;28;20199;-93
2021/08/16 00:52:33;;;;;;;3.67;3.37;;;;;;;26.64;46.54;97825.75;5006487;28;20204;-93
2021/08/16 00:55:00;;;;;;;3.80;3.40;;;;;;;26.64;46.26;97836.44;5005953;28;20198;-93
2021/08/16 00:57:33;;;;;;;3.93;3.63;;;;;;;26.68;46.37;97834.13;5005369;28;20213;-93
2021/08/16 01:00:03;;;;;;;3.77;3.47;;;;;;;26.66;46.27;97847.75;5004456;28;20199;-93
2021/08/16 01:02:31;;;;;;;3.80;3.50;;;;;;;26.73;46.17;97850.31;4999948;28;20204;-94
2021/08/16 01:05:03;;;;;;;3.67;3.37;;;;;;;26.73;46.29;97850.31;5001346;28;20523;-93
2021/08/16 01:07:31;;;;;;;4.07;3.70;;;;;;;26.79;46.10;97852.88;4999454;28;20227;-94
2021/08/16 01:09:58;;;;;;;3.30;3.10;;;;;;;26.83;45.94;97852.41;4999893;28;20195;-93
2021/08/16 01:12:28;;;;;;;3.70;3.40;;;;;;;26.85;45.93;97853.84;4999341;28;20274;-93
2021/08/16 01:14:55;;;;;;;3.67;3.37;;;;;;;26.86;45.83;97858.16;5001172;28;20209;-93
2021/08/16 01:17:22;;;;;;;3.47;3.27;;;;;;;26.77;46.21;97868.38;4984114;28;20209;-94
2021/08/16 01:19:49;;;;;;;3.80;3.37;;;;;;;26.74;46.28;97866.16;5008889;28;20198;-92
2021/08/16 01:22:17;;;;;;;3.57;3.37;;;;;;;26.71;46.01;97871.13;5002065;28;20202;-94
2021/08/16 01:24:44;;;;;;;3.90;3.60;;;;;;;26.70;46.17;97872.19;5005571;28;20246;-94
2021/08/16 01:27:12;;;;;;;3.90;3.60;;;;;;;26.67;46.16;97861.94;5003874;28;20205;-93
2021/08/16 01:29:39;;;;;;;3.70;3.27;;;;;;;26.68;46.32;97874.28;4990696;28;20199;-92
2021/08/16 01:32:07;;;;;;;4.03;3.73;;;;;;;26.72;46.22;97872.78;5003933;28;20230;-94
2021/08/16 01:34:34;;;;;;;3.40;3.20;;;;;;;26.85;45.71;97869.06;5003297;28;20202;-93
2021/08/16 01:37:01;;;;;;;3.27;3.07;;;;;;;26.88;46.00;97871.34;4985068;28;20196;-93
2021/08/16 01:39:28;;;;;;;3.80;3.50;;;;;;;26.80;45.78;97885.84;4985216;28;20203;-93
2021/08/16 01:41:55;;;;;;;4.00;3.70;;;;;;;26.73;46.06;97879.75;4987125;28;20290;-93
2021/08/16 01:44:23;;;;;;;4.67;3.20;;;;;;;26.73;45.99;97883.25;5006427;28;20216;-94
2021/08/16 01:46:51;;;;;;;4.00;3.70;;;;;;;26.68;46.35;97883.09;5005422;28;20187;-94
2021/08/16 01:49:18;;;;;;;3.67;3.37;;;;;;;26.78;46.38;97886.06;5004802;28;20203;-94
2021/08/16 01:51:47;;;;;;;4.10;3.80;;;;;;;26.71;46.35;97887.19;5012412;28;20266;-94
2021/08/16 01:54:15;;;;;;;4.10;3.80;;;;;;;26.71;46.11;97893.38;5008848;28;20297;-93
2021/08/16 01:56:42;;;;;;;3.77;3.47;;;;;;;26.71;46.04;97895.22;5002837;28;20287;-94
2021/08/16 01:59:09;;;;;;;3.60;3.30;;;;;;;26.68;46.16;97891.13;5002514;28;20222;-93
2021/08/16 02:01:35;;;;;;;4.10;3.80;;;;;;;26.68;46.16;97901.84;5004878;28;20186;-92
2021/08/16 02:04:02;;;;;;;3.90;3.60;;;;;;;26.71;46.28;97900.59;5007535;28;20264;-93
2021/08/16 02:06:29;;;;;;;3.73;3.43;;;;;;;26.68;46.26;97907.19;5009170;28;20199;-93
2021/08/16 02:08:56;;;;;;;4.27;3.87;;;;;;;26.64;46.38;97901.50;4988546;28;20208;-93
2021/08/16 02:11:26;;;;;;;3.97;3.67;;;;;;;26.66;46.15;97911.16;5002573;28;20212;-92
2021/08/16 02:13:52;;;;;;;4.30;3.90;;;;;;;26.66;46.37;97906.59;4992338;28;20275;-94
2021/08/16 02:16:19;;;;;;;4.40;4.10;;;;;;;26.66;46.32;97909.28;5007210;28;20248;-93
2021/08/16 02:18:46;;;;;;;4.40;4.00;;;;;;;26.64;46.31;97906.84;5002122;28;20485;-94
2021/08/16 02:21:13;;;;;;;3.87;3.67;;;;;;;26.61;46.47;97904.63;5006713;28;20285;-92
2021/08/16 02:23:40;;;;;;;3.40;3.20;;;;;;;26.61;46.46;97909.97;4989105;28;20635;-92
2021/08/16 02:26:07;;;;;;;4.40;4.00;;;;;;;26.61;46.50;97904.63;4988074;28;20655;-88
2021/08/16 02:28:34;;;;;;;5.80;4.07;;;;;;;26.61;46.73;97901.94;5003905;28;20195;-87
2021/08/16 02:31:00;;;;;;;4.40;4.10;;;;;;;26.63;46.75;97905.22;4991589;28;20203;-90
2021/08/16 02:33:27;;;;;;;4.20;3.90;;;;;;;26.61;46.68;97909.97;5016129;28;20328;-90
2021/08/16 02:35:54;;;;;;;4.37;3.97;;;;;;;26.60;46.74;97907.53;4997400;28;20221;-90
2021/08/16 02:38:21;;;;;;;3.93;3.63;;;;;;;26.60;46.57;97907.53;4996242;28;20201;-88
2021/08/16 02:40:47;;;;;;;4.00;3.63;;;;;;;26.63;46.41;97913.25;5011747;28;20199;-91
2021/08/16 02:43:14;;;;;;;6.43;4.50;;;;;;;26.66;46.46;97916.50;5035396;28;20262;-91
2021/08/16 02:45:40;;;;;;;4.43;3.90;;;;;;;26.67;46.65;97923.50;5020618;28;20230;-92
2021/08/16 02:48:07;;;;;;;4.40;4.00;;;;;;;26.69;46.29;97934.78;5021129;28;20258;-91
2021/08/16 02:50:33;;;;;;;4.30;3.60;;;;;;;26.66;46.48;97937.94;5005997;28;20205;-91
2021/08/16 02:53:00;;;;;;;4.53;4.13;;;;;;;26.62;46.35;97946.41;5007573;28;20187;-91
2021/08/16 02:55:26;;;;;;;4.57;4.17;;;;;;;26.63;46.41;97949.88;5023990;28;20189;-91
2021/08/16 02:57:53;;;;;;;4.10;3.70;;;;;;;26.64;46.28;97943.50;5018668;28;20211;-92
2021/08/16 03:00:20;;;;;;;4.07;3.67;;;;;;;26.64;46.45;97954.19;5023207;28;20207;-89
2021/08/16 03:02:47;;;;;;;4.70;4.30;;;;;;;26.67;46.44;97950.25;5021341;28;20175;-92
2021/08/16 03:05:14;;;;;;;4.50;4.10;;;;;;;26.64;46.11;97952.34;5004802;28;20211;-91
2021/08/16 03:07:41;;;;;;;4.10;3.80;;;;;;;26.68;46.39;97962.59;5019507;28;20209;-91
2021/08/16 03:10:09;;;;;;;5.70;4.23;;;;;;;26.66;46.49;97964.69;5017208;28;20187;-91
2021/08/16 03:12:36;;;;;;;5.47;4.60;;;;;;;26.61;46.73;97960.00;5018391;28;20202;-90
2021/08/16 03:15:05;;;;;;;4.57;3.93;;;;;;;26.58;46.65;97969.28;5002060;28;20207;-91
2021/08/16 03:17:31;;;;;;;4.80;4.40;;;;;;;26.58;46.64;97971.16;5013003;28;20220;-90
2021/08/16 03:19:58;;;;;;;5.37;4.23;;;;;;;26.58;46.62;97968.50;5017395;28;20194;-89
2021/08/16 03:22:25;;;;;;;4.87;4.37;;;;;;;26.54;46.72;97978.81;5008645;28;20621;-90
2021/08/16 03:24:51;;;;;;;4.83;4.30;;;;;;;26.57;46.70;97973.00;5001038;28;20219;-91
2021/08/16 03:27:18;;;;;;;4.30;3.90;;;;;;;26.59;46.66;97981.63;5011017;28;20238;-91
2021/08/16 03:29:45;;;;;;;4.60;4.10;;;;;;;26.60;46.65;97988.59;5004842;28;20537;-91
2021/08/16 03:32:11;;;;;;;4.77;4.17;;;;;;;26.54;46.71;97986.84;4992522;28;20520;-91
2021/08/16 03:34:38;;;;;;;6.07;4.07;;;;;;;26.55;46.81;97991.16;5009551;28;20191;-91
2021/08/16 03:37:05;;;;;;;4.40;3.67;;;;;;;26.51;46.75;97995.34;5005909;28;20188;-88
2021/08/16 03:39:31;;;;;;;4.70;3.77;;;;;;;26.51;46.22;97998.00;5012515;28;20220;-91
2021/08/16 03:41:58;;;;;;;4.20;3.80;;;;;;;26.53;46.54;98003.13;5017190;28;20208;-90
2021/08/16 03:44:25;;;;;;;5.50;3.93;;;;;;;26.55;46.36;97996.50;5005146;28;20197;-91
2021/08/16 03:46:51;;;;;;;4.43;4.03;;;;;;;26.63;46.04;98000.72;5011803;28;20219;-86
2021/08/16 03:49:18;;;;;;;4.07;3.67;;;;;;;26.64;45.73;98000.53;4987786;28;20207;-90
2021/08/16 03:51:44;;;;;;;4.10;3.70;;;;;;;26.64;45.89;98003.19;5012309;28;20213;-90
2021/08/16 03:54:11;;;;;;;3.70;3.27;;;;;;;26.61;45.82;98006.31;5015462;28;20294;-91
2021/08/16 03:56:38;;;;;;;3.90;3.60;;;;;;;26.62;45.76;98007.97;5011196;28;20198;-91
2021/08/16 03:59:04;;;;;;;4.93;3.50;;;;;;;26.66;45.77;98002.16;5011406;28;20198;-88
2021/08/16 04:01:31;;;;;;;5.50;4.03;;;;;;;26.66;45.40;98010.97;5006970;28;20198;-90
2021/08/16 04:04:01;;;;;;;4.03;3.30;;;;;;;26.69;45.25;98018.56;5010422;28;20270;-86
2021/08/16 04:06:28;;;;;;;4.67;3.60;;;;;;;26.62;45.36;98013.31;5008955;28;20247;-91
2021/08/16 04:08:55;;;;;;;4.77;3.57;;;;;;;26.60;45.34;98012.69;5005003;28;20195;-87
2021/08/16 04:11:22;;;;;;;3.87;3.43;;;;;;;26.59;44.95;98016.41;5005261;28;20237;-89
2021/08/16 04:13:48;;;;;;;5.70;3.33;;;;;;;26.58;45.02;98016.66;5006912;28;20195;-88
2021/08/16 04:16:15;;;;;;;3.80;3.27;;;;;;;26.50;45.01;98020.47;5002383;28;20202;-90
2021/08/16 04:18:42;;;;;;;5.77;3.30;;;;;;;26.46;44.93;98024.63;5001839;28;20195;-89
2021/08/16 04:21:09;;;;;;;3.20;2.97;;;;;;;26.40;45.05;98028.19;5000686;28;20203;-90
2021/08/16 04:23:36;;;;;;;4.03;3.63;;;;;;;26.38;44.77;98028.41;5001483;28;20206;-89
2021/08/16 04:26:03;;;;;;;3.20;2.90;;;;;;;26.34;44.96;98033.38;4984805;28;20223;-91
2021/08/16 04:28:29;;;;;;;3.17;2.87;;;;;;;26.32;44.62;98034.63;4999785;28;20203;-90
2021/08/16 04:30:56;;;;;;;4.43;3.00;;;;;;;26.28;44.45;98028.09;4983653;28;20195;-89
2021/08/16 04:33:24;;;;;;;3.43;3.13;;;;;;;26.19;45.01;98040.97;5006288;28;20206;-91
2021/08/16 04:35:53;;;;;;;4.03;3.00;;;;;;;26.15;44.62;98039.75;4995193;28;20223;-91
2021/08/16 04:38:20;;;;;;;5.13;3.33;;;;;;;26.17;44.55;98043.84;5012869;28;20209;-91
2021/08/16 04:40:46;;;;;;;4.03;3.00;;;;;;;26.15;44.73;98040.53;5018415;28;20219;-90
2021/08/16 04:43:14;;;;;;;5.93;3.17;;;;;;;26.14;44.47;98038.09;4996286;28;20207;-90
2021/08/16 04:45:40;;;;;;;4.03;2.90;;;;;;;26.15;44.81;98034.41;5008471;28;20230;-91
2021/08/16 04:48:07;;;;;;;3.40;3.00;;;;;;;26.13;44.46;98039.94;5007909;28;20199;-90
2021/08/16 04:50:34;;;;;;;3.50;2.87;;;;;;;26.12;44.22;98032.97;4990782;28;20210;-90
2021/08/16 04:53:00;;;;;;;4.10;2.93;;;;;;;26.12;44.56;98043.66;5002939;28;20627;-90
2021/08/16 04:55:27;;;;;;;5.50;3.10;;;;;;;26.12;44.29;98040.16;5007194;28;20190;-89
2021/08/16 04:57:53;;;;;;;3.10;2.80;;;;;;;26.09;44.01;98041.44;5011712;28;20208;-87
2021/08/16 05:00:25;;;;;;;3.73;2.90;;;;;;;26.08;44.35;98040.59;4992474;28;20236;-90
2021/08/16 05:02:53;;;;;;;3.20;2.47;;;;;;;26.08;43.93;98040.59;4989379;28;20202;-91
2021/08/16 05:05:23;;;;;;;3.00;2.50;;;;;;;26.10;43.81;98042.25;5005666;28;20223;-89
2021/08/16 05:07:52;;;;;;;3.37;2.63;;;;;;;26.10;44.00;98048.41;5003773;28;20659;-91
2021/08/16 05:10:23;;;;;;;5.10;3.10;;;;;;;26.10;43.76;98047.59;5004765;28;20199;-91
2021/08/16 05:12:52;;;;;;;3.03;2.50;;;;;;;26.05;43.61;98051.75;5011466;28;20201;-91
2021/08/16 05:15:20;;;;;;;5.03;3.20;;;;;;;26.05;43.49;98049.06;5008560;28;20192;-91
2021/08/16 05:17:47;;;;;;;3.30;2.40;;;;;;;26.06;43.45;98050.72;5005824;28;20204;-92
2021/08/16 05:20:17;;;;;;;3.83;2.53;;;;;;;26.05;43.51;98053.59;4988182;28;20202;-91
2021/08/16 05:22:46;;;;;;;4.87;2.60;;;;;;;26.02;42.94;98048.69;5005443;28;20202;-91
2021/08/16 05:25:14;;;;;;;3.73;2.73;;;;;;;26.02;43.06;98052.19;5003905;28;20191;-88
2021/08/16 05:27:41;;;;;;;4.10;2.80;;;;;;;25.99;42.94;98058.00;5004071;28;20209;-93
2021/08/16 05:30:08;;;;;;;5.20;2.53;;;;;;;25.98;43.07;98050.19;4991065;28;20191;-91
2021/08/16 05:32:39;;;;;;;4.87;2.70;;;;;;;25.95;42.97;98051.44;5000685;28;20200;-90
2021/08/16 05:35:06;;;;;;;4.40;2.50;;;;;;;25.94;42.87;98055.97;5003620;28;20679;-91
2021/08/16 05:37:33;;;;;;;4.27;2.43;;;;;;;25.91;42.89;98058.25;5002563;28;20194;-92
2021/08/16 05:40:00;;;;;;;5.00;2.80;;;;;;;25.90;42.56;98059.28;5000824;28;20206;-92
2021/08/16 05:42:27;;;;;;;6.37;2.50;;;;;;;25.90;42.83;98070.00;5004592;28;20629;-90
2021/08/16 05:44:54;;;;;;;5.17;2.87;;;;;;;25.87;42.88;98057.88;5002652;28;20204;-92
2021/08/16 05:47:20;;;;;;;7.03;2.90;;;;;;;25.89;42.76;98068.34;5003594;28;20229;-91
2021/08/16 05:49:47;;;;;;;3.90;2.70;;;;;;;25.93;42.96;98064.19;4984066;28;20203;-90
2021/08/16 05:52:13;;;;;;;3.03;2.60;;;;;;;26.00;43.12;98064.13;4999028;28;20195;-90
2021/08/16 05:54:40;;;;;;;4.60;2.80;;;;;;;26.03;43.25;98069.88;5018262;28;20640;-89
2021/08/16 05:57:06;;;;;;;5.03;2.80;;;;;;;26.05;42.66;98072.31;5002659;28;20210;-89
2021/08/16 05:59:33;;;;;;;6.17;2.50;;;;;;;25.87;41.58;98071.22;5002928;28;20198;-88
2021/08/16 06:01:59;;;;;;;4.50;2.40;;;;;;;25.71;41.44;98075.28;5001817;28;20202;-89
2021/08/16 06:04:26;;;;;;;4.67;2.57;;;;;;;25.60;41.54;98074.13;4985816;28;20604;-88
2021/08/16 06:06:53;;;;;;;6.63;2.63;;;;;;;25.54;41.11;98074.19;5001663;28;20555;-90
2021/08/16 06:09:19;;;;;;;3.67;2.30;;;;;;;25.51;40.95;98078.09;5001747;28;20198;-90
2021/08/16 06:11:46;;;;;;;5.30;2.60;;;;;;;25.46;40.82;98086.72;5001559;28;20199;-89
2021/08/16 06:14:13;;;;;;;5.80;2.43;;;;;;;25.38;40.72;98087.00;5001774;28;20209;-89
2021/08/16 06:16:40;;;;;;;5.40;2.47;;;;;;;25.41;40.86;98089.22;4985238;28;20202;-91
2021/08/16 06:19:08;;;;;;;6.20;2.60;;;;;;;25.49;41.01;98089.00;5002972;28;20204;-91
2021/08/16 06:21:39;;;;;;;4.33;2.47;;;;;;;25.61;41.19;98093.63;4986629;28;20201;-91
2021/08/16 06:24:06;;;;;;;4.07;2.43;;;;;;;25.70;41.45;98097.69;5001508;28;20533;-90
2021/08/16 06:26:33;;;;;;;3.70;2.40;;;;;;;25.78;41.64;98099.28;5001235;28;20228;-89
2021/08/16 06:29:00;;;;;;;7.43;2.60;;;;;;;25.87;41.65;98099.84;5002556;28;20206;-90
2021/08/16 06:31:27;;;;;;;7.10;2.57;;;;;;;25.91;42.08;98084.97;4987237;28;20294;-89
2021/08/16 06:33:54;;;;;;;4.67;2.30;;;;;;;25.97;42.04;98086.78;5005351;28;20199;-89
2021/08/16 06:36:21;;;;;;;3.63;2.70;;;;;;;26.01;41.96;98079.97;4985811;28;20195;-90
2021/08/16 06:38:49;;;;;;;5.57;2.47;;;;;;;26.06;41.95;98080.13;5001614;28;20205;-90
2021/08/16 06:41:17;;;;;;;5.07;2.30;;;;;;;26.11;41.92;98081.31;4985378;28;20555;-91
2021/08/16 06:43:48;;;;;;;4.77;2.50;;;;;;;26.16;41.83;98089.50;5002547;28;20577;-90
2021/08/16 06:46:15;;;;;;;5.07;2.50;;;;;;;26.16;42.05;98095.66;4986027;28;20250;-90
2021/08/16 06:48:42;;;;;;;4.17;2.47;;;;;;;26.18;42.35;98087.47;5000668;28;20296;-90
2021/08/16 06:51:09;;;;;;;3.27;2.13;;;;;;;26.24;42.01;98094.59;5001339;28;20194;-91
2021/08/16 06:53:36;;;;;;;5.73;2.43;;;;;;;26.28;42.20;98095.78;5001921;28;20207;-89
2021/08/16 06:56:03;;;;;;;6.97;2.70;;;;;;;26.33;42.06;98098.63;4985802;28;20249;-88
2021/08/16 06:58:31;;;;;;;4.97;2.53;;;;;;;26.37;42.30;98096.31;5001510;28;20210;-89
2021/08/16 07:00:58;;;;;;;3.20;2.20;;;;;;;26.40;42.10;98097.72;4984847;28;20203;-91
2021/08/16 07:03:27;;;;;;;2.93;2.33;;;;;;;26.44;42.30;98096.25;5001058;28;20205;-91
2021/08/16 07:05:54;;;;;;;3.10;2.20;;;;;;;26.53;42.50;98105.63;4985567;28;20285;-90
2021/08/16 07:08:21;;;;;;;6.27;2.43;;;;;;;26.54;42.38;98101.91;4984792;28;20205;-91
2021/08/16 07:10:49;;;;;;;6.00;2.40;;;;;;;26.54;42.14;98103.78;4985140;28;20195;-83
2021/08/16 07:13:16;;;;;;;4.33;2.37;;;;;;;26.49;42.26;98102.56;5000821;28;20273;-90
2021/08/16 07:15:43;;;;;;;4.60;2.50;;;;;;;26.48;42.24;98102.81;5001337;28;20218;-89
2021/08/16 07:18:10;;;;;;;4.70;2.33;;;;;;;26.35;42.12;98093.88;4984422;28;20216;-88
2021/08/16 07:20:36;;;;;;;4.70;2.60;;;;;;;26.19;41.86;98100.59;4983893;28;20199;-90
2021/08/16 07:23:03;;;;;;;5.73;2.47;;;;;;;26.07;41.78;98103.16;4999904;28;20639;-89
2021/08/16 07:25:30;;;;;;;6.17;2.50;;;;;;;26.00;41.70;98107.75;5000421;28;20275;-89
2021/08/16 07:27:56;;;;;;;4.27;2.27;;;;;;;25.98;41.61;98117.84;4983977;28;20202;-90
2021/08/16 07:30:23;;;;;;;4.00;2.20;;;;;;;26.00;41.55;98106.91;4983918;28;20195;-87
2021/08/16 07:32:49;;;;;;;4.63;2.40;;;;;;;25.97;41.65;98118.84;5000297;28;20266;-87
2021/08/16 07:35:16;;;;;;;4.73;2.37;;;;;;;25.97;41.68;98120.72;4999872;28;20207;-84
2021/08/16 07:37:43;;;;;;;6.00;2.30;;;;;;;25.98;41.50;98125.88;4983647;28;20253;-87
2021/08/16 07:40:10;;;;;;;4.67;2.43;;;;;;;26.01;41.48;98119.25;4999951;28;20198;-88
2021/08/16 07:42:38;;;;;;;4.60;2.27;;;;;;;25.98;41.21;98117.00;4999706;28;20210;-86
2021/08/16 07:45:05;;;;;;;5.97;2.13;;;;;;;25.92;41.05;98118.69;5000100;28;20207;-85
2021/08/16 07:47:32;;;;;;;10.43;2.60;;;;;;;25.83;41.04;98117.34;4999608;28;20210;-85
2021/08/16 07:49:59;;;;;;;4.50;2.40;;;;;;;25.76;41.17;98123.53;5016664;28;20504;-84
2021/08/16 07:52:26;;;;;;;6.27;2.27;;;;;;;25.73;40.95;98118.63;4999940;28;20195;-83
2021/08/16 07:54:55;;;;;;;5.87;2.20;;;;;;;25.73;40.79;98123.97;4999746;28;20190;-84
2021/08/16 07:57:22;;;;;;;6.37;2.40;;;;;;;25.76;40.88;98128.09;4999493;28;20191;-83
2021/08/16 07:59:49;;;;;;;8.63;2.23;;;;;;;25.77;40.60;98132.41;4999239;28;20285;-86
2021/08/16 08:02:16;;;;;;;4.60;2.50;;;;;;;25.77;40.89;98140.41;4999440;28;20289;-89
2021/08/16 08:04:42;;;;;;;4.10;1.90;;;;;;;25.79;40.48;98146.34;4999162;28;20195;-88
2021/08/16 08:07:09;;;;;;;5.07;2.30;;;;;;;25.82;40.92;98140.56;5016484;28;20280;-88
2021/08/16 08:09:35;;;;;;;4.40;1.73;;;;;;;25.88;40.94;98137.00;4999323;28;20198;-89
2021/08/16 08:12:02;;;;;;;4.57;2.20;;;;;;;25.95;41.06;98142.31;4997145;28;20211;-89
2021/08/16 08:14:29;;;;;;;9.53;2.17;;;;;;;25.96;40.86;98141.28;4998514;28;20187;-86
2021/08/16 08:16:56;;;;;;;6.23;1.93;;;;;;;25.91;40.49;98146.47;4991145;28;20196;-86
2021/08/16 08:19:22;;;;;;;4.00;2.17;;;;;;;25.88;40.62;98139.69;4993492;28;20298;-85
2021/08/16 08:21:49;;;;;;;5.13;2.07;;;;;;;25.84;40.48;98145.72;4977535;28;20231;-85
2021/08/16 08:24:15;;;;;;;7.63;2.30;;;;;;;25.84;40.21;98153.72;4977975;28;20207;-86
2021/08/16 08:26:42;;;;;;;4.33;1.97;;;;;;;25.80;40.44;98151.47;4978089;28;20250;-89
2021/08/16 08:29:08;;;;;;;4.43;2.03;;;;;;;25.87;40.85;98155.97;4982715;28;20192;-89
2021/08/16 08:31:41;;;;;;;3.80;1.80;;;;;;;25.95;40.81;98150.34;4987694;28;20198;-87
2021/08/16 08:34:08;;;;;;;4.10;1.90;;;;;;;26.07;41.20;98161.16;4999204;28;20195;-87
2021/08/16 08:36:35;;;;;;;3.63;1.77;;;;;;;26.13;41.05;98154.09;4996547;28;20198;-89
2021/08/16 08:39:02;;;;;;;4.00;1.80;;;;;;;26.20;40.81;98154.91;4997258;28;20202;-87
2021/08/16 08:41:32;;;;;;;5.50;1.90;;;;;;;26.25;41.36;98155.06;5031239;28;20199;-87
2021/08/16 08:43:59;;;;;;;3.53;1.80;;;;;;;26.23;41.33;98148.31;4990412;28;20204;-86
2021/08/16 08:46:27;;;;;;;6.20;1.77;;;;;;;26.25;41.32;98160.41;4979096;28;20226;-90
2021/08/16 08:48:54;;;;;;;4.37;2.10;;;;;;;26.19;41.37;98156.75;4979122;28;20198;-88
2021/08/16 08:51:21;;;;;;;3.33;1.80;;;;;;;26.12;41.41;98174.69;4995337;28;20200;-89
2021/08/16 08:53:47;;;;;;;3.57;1.83;;;;;;;26.10;41.19;98160.72;4995407;28;20290;-89
2021/08/16 08:56:16;;;;;;;3.33;1.77;;;;;;;26.14;41.09;98171.81;4995285;28;20191;-88
2021/08/16 08:58:43;;;;;;;3.40;1.73;;;;;;;26.08;40.99;98174.31;4996118;28;20621;-85
2021/08/16 09:01:09;;;;;;;3.93;1.90;;;;;;;26.03;41.28;98168.78;4995392;28;20214;-89
2021/08/16 09:03:49;;;;;;;4.10;1.80;;;;;;;26.07;41.14;98164.66;4995024;28;20195;-88
2021/08/16 09:06:34;;;;;;;3.40;1.83;;;;;;;26.03;40.69;98165.28;4995044;28;22081;-88
2021/08/16 09:09:01;;;;;;;4.17;2.00;;;;;;;26.01;40.64;98165.53;4994952;28;20192;-87
2021/08/16 09:11:29;;;;;;;4.60;1.97;;;;;;;26.00;40.85;98158.53;4978713;28;20199;-87
2021/08/16 09:14:01;;;;;;;4.50;1.87;;;;;;;26.02;40.83;98156.47;4978668;28;20204;-89
2021/08/16 09:16:30;;;;;;;4.37;2.17;;;;;;;26.05;40.84;98164.03;4996010;28;20195;-86
2021/08/16 09:18:57;;;;;;;3.47;1.83;;;;;;;26.07;40.95;98155.81;4978737;28;20199;-90
2021/08/16 09:21:32;;;;;;;5.97;1.80;;;;;;;26.11;41.05;98153.50;4994801;28;20195;-90
2021/08/16 09:24:00;;;;;;;3.50;1.70;;;;;;;26.05;41.15;98147.16;4994893;28;20617;-86
2021/08/16 09:26:30;;;;;;;2.87;1.80;;;;;;;26.07;41.28;98145.94;4994766;28;20241;-88
2021/08/16 09:29:21;;;;;;;2.90;1.70;;;;;;;26.19;41.21;98153.28;4995276;28;20254;-86
2021/08/16 09:31:56;;;;;;;2.53;1.80;;;;;;;26.21;41.10;98146.69;4994740;28;20202;-87
2021/08/16 09:34:48;;;;;;;3.07;2.00;;;;;;;26.32;41.11;98146.97;4995046;28;20187;-89
2021/08/16 09:37:24;;;;;;;2.30;1.60;;;;;;;26.42;41.09;98141.13;4979141;28;20528;-91
2021/08/16 09:40:12;;;;;;;3.03;1.90;;;;;;;26.50;41.37;98138.97;4996923;28;20194;-92
2021/08/16 09:42:46;;;;;;;2.97;1.77;;;;;;;26.55;40.90;98135.66;4978540;28;20537;-90
2021/08/16 09:45:27;;;;;;;3.63;1.70;;;;;;;26.56;41.22;98131.94;4994910;28;20191;-89
2021/08/16 09:47:58;;;;;;;2.77;2.03;;;;;;;26.57;40.82;98138.91;4994427;28;20215;-89
2021/08/16 09:50:43;;;;;;;3.43;1.70;;;;;;;26.54;41.01;98139.38;4978622;28;20201;-86
2021/08/16 09:53:15;;;;;;;6.23;2.10;;;;;;;26.48;41.01;98137.59;4995819;28;20184;-87
2021/08/16 09:55:45;;;;;;;4.57;2.07;;;;;;;26.49;41.10;98131.19;4994602;28;20194;-90
2021/08/16 09:58:14;;;;;;;3.97;1.87;;;;;;;26.40;41.18;98138.69;4978403;28;20214;-90
2021/08/16 10:00:46;;;;;;;2.60;1.83;;;;;;;26.33;41.54;98141.44;4994465;28;20191;-88
2021/08/16 10:03:13;;;;;;;4.80;2.30;;;;;;;26.30;41.46;98139.19;4994405;28;20195;-89
2021/08/16 10:05:47;;;;;;;5.37;2.47;;;;;;;26.26;41.14;98143.31;4994311;28;20199;-87
2021/08/16 10:08:21;;;;;;;5.03;2.27;;;;;;;26.18;41.40;98146.28;4995561;28;20196;-89
2021/08/16 10:10:48;;;;;;;2.97;2.03;;;;;;;26.14;41.02;98139.72;4994406;28;20559;-90
2021/08/16 10:13:15;;;;;;;3.10;1.80;;;;;;;26.10;41.38;98143.84;4994865;28;20640;-90
2021/08/16 10:15:44;;;;;;;2.83;2.17;;;;;;;26.14;41.58;98150.41;4996010;28;20279;-89
2021/08/16 10:18:24;;;;;;;3.57;2.00;;;;;;;26.18;41.71;98154.31;4994739;28;20238;-88
2021/08/16 10:20:51;;;;;;;3.73;1.97;;;;;;;26.22;41.44;98136.78;4978435;28;20191;-88
2021/08/16 10:23:22;;;;;;;4.37;2.30;;;;;;;26.23;41.65;98137.63;4994602;28;20294;-89
2021/08/16 10:25:55;;;;;;;4.03;2.03;;;;;;;26.21;41.49;98143.19;4994493;28;20520;-87
2021/08/16 10:28:30;;;;;;;4.07;2.10;;;;;;;26.22;41.55;98142.13;4995409;28;20203;-87
2021/08/16 10:30:58;;;;;;;4.63;2.00;;;;;;;26.17;41.62;98140.13;4978151;28;20187;-89
2021/08/16 10:33:25;;;;;;;2.17;1.87;;;;;;;26.22;41.76;98136.78;4994050;28;20199;-87
2021/08/16 10:35:52;;;;;;;4.17;2.00;;;;;;;26.18;42.08;98147.09;4978289;28;20246;-87
2021/08/16 10:38:47;;;;;;;2.13;1.77;;;;;;;26.29;41.86;98126.84;4994028;28;20582;-89
2021/08/16 10:41:24;;;;;;;3.60;2.13;;;;;;;26.38;41.87;98137.25;4995766;28;20191;-87
2021/08/16 10:43:50;;;;;;;3.73;2.03;;;;;;;26.44;41.63;98133.69;4981718;28;20691;-88
2021/08/16 10:46:21;;;;;;;3.43;2.00;;;;;;;26.49;41.93;98132.00;4997665;28;20209;-87
2021/08/16 10:49:06;;;;;;;28.57;11.83;;;;;;;26.57;41.50;98130.88;4998094;28;20274;-86
2021/08/16 10:51:44;;;;;;;57.67;25.00;;;;;;;26.66;41.38;98135.97;4997992;28;20250;-86
2021/08/16 10:54:40;;;;;;;97.60;20.93;;;;;;;26.74;41.53;98141.84;4997251;28;20195;-86
2021/08/16 10:57:10;;;;;;;95.33;38.53;;;;;;;26.79;41.67;98125.13;4992948;28;20195;-86
2021/08/16 10:59:37;;;;;;;172.30;67.40;;;;;;;26.83;41.33;98118.25;4997614;28;20192;-88
2021/08/16 11:02:03;;;;;;;151.53;70.60;;;;;;;26.81;41.62;98123.03;4997308;28;20590;-89
2021/08/16 11:04:36;;;;;;;193.97;86.97;;;;;;;26.81;41.74;98124.88;4997180;28;20204;-87
2021/08/16 11:07:05;;;;;;;173.70;79.43;;;;;;;26.84;41.81;98122.56;4997134;28;20230;-88
2021/08/16 11:09:35;;;;;;;119.40;57.33;;;;;;;26.83;41.96;98120.09;4997051;28;20191;-88
2021/08/16 11:12:07;;;;;;;131.40;61.97;;;;;;;26.80;42.14;98113.38;4981164;28;20204;-87
2021/08/16 11:14:45;;;;;;;103.07;52.53;;;;;;;26.82;41.73;98116.63;4997774;28;20191;-88
2021/08/16 11:17:11;;;;;;;101.60;51.40;;;;;;;26.88;42.10;98122.97;4997273;28;20222;-89
2021/08/16 11:19:46;;;;;;;60.97;32.57;;;;;;;26.85;41.74;98121.53;4997033;28;20536;-89
2021/08/16 11:22:16;;;;;;;38.93;20.60;;;;;;;26.72;41.62;98102.94;4996498;28;20193;-88
2021/08/16 11:24:45;;;;;;;45.03;20.47;;;;;;;26.52;41.77;98112.00;4998173;28;20196;-90
2021/08/16 11:27:23;;;;;;;33.53;19.03;;;;;;;26.50;41.46;98103.41;4997182;28;20640;-87
2021/08/16 11:30:03;;;;;;;60.80;30.40;;;;;;;26.53;41.52;98108.28;4996882;28;20195;-88
2021/08/16 11:32:31;;;;;;;49.70;24.07;;;;;;;26.61;41.76;98116.00;4996999;28;20242;-87
2021/08/16 11:34:59;;;;;;;67.70;34.73;;;;;;;26.73;41.38;98104.56;4980873;28;20199;-88
2021/08/16 11:37:29;;;;;;;56.27;30.43;;;;;;;26.72;42.00;98105.63;4996824;28;20199;-87